sensor_id;sensor_type;location;lat;lon;timestamp;P1;durP1;ratioP1;P2;durP2;ratioP2
64075;SDS011;50327;51.328;12.324;2023-08-24T00:02:13;9.93;;;4.75;;
64075;SDS011;50327;51.328;12.324;2023-08-24T00:04:38;9.80;;;5.13;;
64075;SDS011;50327;51.328;12.324;2023-08-24T00:07:03;13.27;;;5.07;;
64075;SDS011;50327;51.328;12.324;2023-08-24T00:09:29;13.70;;;5.45;;
64075;SDS011;50327;51.328;12.324;2023-08-24T00:11:54;10.55;;;5.20;;
64075;SDS011;50327;51.328;12.324;2023-08-24T00:14:20;8.02;;;4.75;;
64075;SDS011;50327;51.328;12.324;2023-08-24T00:16:46;10.93;;;5.00;;
64075;SDS011;50327;51.328;12.324;2023-08-24T00:19:11;16.27;;;5.43;;
64075;SDS011;50327;51.328;12.324;2023-08-24T00:21:36;11.85;;;5.47;;
64075;SDS011;50327;51.328;12.324;2023-08-24T00:24:01;11.35;;;4.97;;
64075;SDS011;50327;51.328;12.324;2023-08-24T00:26:27;9.05;;;5.07;;
64075;SDS011;50327;51.328;12.324;2023-08-24T00:28:52;13.90;;;4.90;;
64075;SDS011;50327;51.328;12.324;2023-08-24T00:31:17;9.68;;;5.15;;
64075;SDS011;50327;51.328;12.324;2023-08-24T00:33:43;11.23;;;5.22;;
64075;SDS011;50327;51.328;12.324;2023-08-24T00:36:08;19.88;;;5.35;;
64075;SDS011;50327;51.328;12.324;2023-08-24T00:38:33;11.88;;;4.88;;
64075;SDS011;50327;51.328;12.324;2023-08-24T00:40:59;7.53;;;4.72;;
64075;SDS011;50327;51.328;12.324;2023-08-24T00:43:27;12.27;;;4.75;;
64075;SDS011;50327;51.328;12.324;2023-08-24T00:45:53;13.07;;;4.70;;
64075;SDS011;50327;51.328;12.324;2023-08-24T00:48:20;12.20;;;4.93;;
64075;SDS011;50327;51.328;12.324;2023-08-24T00:50:46;7.63;;;4.65;;
64075;SDS011;50327;51.328;12.324;2023-08-24T00:53:11;9.13;;;4.82;;
64075;SDS011;50327;51.328;12.324;2023-08-24T00:55:37;11.02;;;4.85;;
64075;SDS011;50327;51.328;12.324;2023-08-24T00:58:02;15.25;;;5.13;;
64075;SDS011;50327;51.328;12.324;2023-08-24T01:00:28;8.77;;;5.22;;
64075;SDS011;50327;51.328;12.324;2023-08-24T01:02:53;11.52;;;5.65;;
64075;SDS011;50327;51.328;12.324;2023-08-24T01:05:18;10.45;;;5.28;;
64075;SDS011;50327;51.328;12.324;2023-08-24T01:07:44;13.15;;;5.38;;
64075;SDS011;50327;51.328;12.324;2023-08-24T01:10:09;11.75;;;5.78;;
64075;SDS011;50327;51.328;12.324;2023-08-24T01:15:13;12.32;;;5.60;;
64075;SDS011;50327;51.328;12.324;2023-08-24T01:17:39;13.30;;;5.40;;
64075;SDS011;50327;51.328;12.324;2023-08-24T01:20:07;10.03;;;5.10;;
64075;SDS011;50327;51.328;12.324;2023-08-24T01:25:15;11.23;;;5.20;;
64075;SDS011;50327;51.328;12.324;2023-08-24T01:27:40;7.68;;;5.40;;
64075;SDS011;50327;51.328;12.324;2023-08-24T01:30:06;12.00;;;5.13;;
64075;SDS011;50327;51.328;12.324;2023-08-24T01:32:33;11.77;;;5.22;;
64075;SDS011;50327;51.328;12.324;2023-08-24T01:34:58;9.85;;;5.00;;
64075;SDS011;50327;51.328;12.324;2023-08-24T01:37:24;13.45;;;5.70;;
64075;SDS011;50327;51.328;12.324;2023-08-24T01:42:17;11.33;;;5.00;;
64075;SDS011;50327;51.328;12.324;2023-08-24T01:44:44;10.20;;;5.80;;
64075;SDS011;50327;51.328;12.324;2023-08-24T01:49:37;12.52;;;5.35;;
64075;SDS011;50327;51.328;12.324;2023-08-24T01:52:03;13.00;;;5.90;;
64075;SDS011;50327;51.328;12.324;2023-08-24T01:54:29;10.55;;;5.82;;
64075;SDS011;50327;51.328;12.324;2023-08-24T01:56:55;11.27;;;6.22;;
64075;SDS011;50327;51.328;12.324;2023-08-24T01:59:20;11.85;;;6.00;;
64075;SDS011;50327;51.328;12.324;2023-08-24T02:01:45;11.48;;;5.80;;
64075;SDS011;50327;51.328;12.324;2023-08-24T02:04:10;10.10;;;5.03;;
64075;SDS011;50327;51.328;12.324;2023-08-24T02:06:36;9.82;;;5.78;;
64075;SDS011;50327;51.328;12.324;2023-08-24T02:09:01;8.48;;;5.60;;
64075;SDS011;50327;51.328;12.324;2023-08-24T02:11:26;12.88;;;5.40;;
64075;SDS011;50327;51.328;12.324;2023-08-24T02:13:51;11.98;;;6.05;;
64075;SDS011;50327;51.328;12.324;2023-08-24T02:16:17;14.18;;;5.30;;
64075;SDS011;50327;51.328;12.324;2023-08-24T02:18:42;13.93;;;6.65;;
64075;SDS011;50327;51.328;12.324;2023-08-24T02:21:08;15.60;;;7.03;;
64075;SDS011;50327;51.328;12.324;2023-08-24T02:23:34;11.70;;;6.32;;
64075;SDS011;50327;51.328;12.324;2023-08-24T02:25:59;11.07;;;6.03;;
64075;SDS011;50327;51.328;12.324;2023-08-24T02:28:24;15.23;;;6.25;;
64075;SDS011;50327;51.328;12.324;2023-08-24T02:30:49;17.17;;;6.05;;
64075;SDS011;50327;51.328;12.324;2023-08-24T02:33:15;12.93;;;6.18;;
64075;SDS011;50327;51.328;12.324;2023-08-24T02:35:40;15.88;;;6.72;;
64075;SDS011;50327;51.328;12.324;2023-08-24T02:38:05;11.90;;;6.05;;
64075;SDS011;50327;51.328;12.324;2023-08-24T02:40:30;13.20;;;6.50;;
64075;SDS011;50327;51.328;12.324;2023-08-24T02:42:56;11.43;;;5.85;;
64075;SDS011;50327;51.328;12.324;2023-08-24T02:45:21;16.75;;;6.07;;
64075;SDS011;50327;51.328;12.324;2023-08-24T02:47:46;10.77;;;5.85;;
64075;SDS011;50327;51.328;12.324;2023-08-24T02:50:12;15.70;;;6.90;;
64075;SDS011;50327;51.328;12.324;2023-08-24T02:52:37;10.57;;;6.85;;
64075;SDS011;50327;51.328;12.324;2023-08-24T02:55:02;16.15;;;6.30;;
64075;SDS011;50327;51.328;12.324;2023-08-24T02:57:28;11.98;;;6.63;;
64075;SDS011;50327;51.328;12.324;2023-08-24T02:59:54;8.23;;;5.28;;
64075;SDS011;50327;51.328;12.324;2023-08-24T03:02:19;12.38;;;6.28;;
64075;SDS011;50327;51.328;12.324;2023-08-24T03:04:44;13.75;;;5.68;;
64075;SDS011;50327;51.328;12.324;2023-08-24T03:07:09;17.83;;;5.90;;
64075;SDS011;50327;51.328;12.324;2023-08-24T03:09:35;13.70;;;6.30;;
64075;SDS011;50327;51.328;12.324;2023-08-24T03:12:01;12.32;;;5.45;;
64075;SDS011;50327;51.328;12.324;2023-08-24T03:14:29;13.40;;;5.75;;
64075;SDS011;50327;51.328;12.324;2023-08-24T03:16:55;11.00;;;5.82;;
64075;SDS011;50327;51.328;12.324;2023-08-24T03:19:20;12.18;;;5.60;;
64075;SDS011;50327;51.328;12.324;2023-08-24T03:21:45;7.90;;;5.25;;
64075;SDS011;50327;51.328;12.324;2023-08-24T03:24:10;16.20;;;6.00;;
64075;SDS011;50327;51.328;12.324;2023-08-24T03:26:36;15.15;;;6.65;;
64075;SDS011;50327;51.328;12.324;2023-08-24T03:29:01;16.83;;;11.80;;
64075;SDS011;50327;51.328;12.324;2023-08-24T03:31:26;11.18;;;8.38;;
64075;SDS011;50327;51.328;12.324;2023-08-24T03:33:52;12.43;;;7.32;;
64075;SDS011;50327;51.328;12.324;2023-08-24T03:36:17;12.05;;;7.28;;
64075;SDS011;50327;51.328;12.324;2023-08-24T03:38:42;11.77;;;6.95;;
64075;SDS011;50327;51.328;12.324;2023-08-24T03:41:07;9.65;;;6.85;;
64075;SDS011;50327;51.328;12.324;2023-08-24T03:43:33;13.30;;;7.88;;
64075;SDS011;50327;51.328;12.324;2023-08-24T03:45:59;14.63;;;7.55;;
64075;SDS011;50327;51.328;12.324;2023-08-24T03:48:24;12.70;;;6.57;;
64075;SDS011;50327;51.328;12.324;2023-08-24T03:50:49;11.23;;;6.40;;
64075;SDS011;50327;51.328;12.324;2023-08-24T03:53:15;14.60;;;6.88;;
64075;SDS011;50327;51.328;12.324;2023-08-24T03:55:40;10.88;;;6.63;;
64075;SDS011;50327;51.328;12.324;2023-08-24T03:58:05;13.68;;;7.45;;
64075;SDS011;50327;51.328;12.324;2023-08-24T04:00:30;10.95;;;6.20;;
64075;SDS011;50327;51.328;12.324;2023-08-24T04:02:56;16.42;;;7.13;;
64075;SDS011;50327;51.328;12.324;2023-08-24T04:05:21;18.17;;;7.13;;
64075;SDS011;50327;51.328;12.324;2023-08-24T04:07:46;12.68;;;6.13;;
64075;SDS011;50327;51.328;12.324;2023-08-24T04:10:12;18.27;;;8.05;;
64075;SDS011;50327;51.328;12.324;2023-08-24T04:12:37;15.63;;;6.80;;
64075;SDS011;50327;51.328;12.324;2023-08-24T04:15:03;10.68;;;6.20;;
64075;SDS011;50327;51.328;12.324;2023-08-24T04:17:29;13.25;;;5.63;;
64075;SDS011;50327;51.328;12.324;2023-08-24T04:19:54;16.77;;;6.65;;
64075;SDS011;50327;51.328;12.324;2023-08-24T04:22:19;10.98;;;6.20;;
64075;SDS011;50327;51.328;12.324;2023-08-24T04:24:45;13.32;;;6.20;;
64075;SDS011;50327;51.328;12.324;2023-08-24T04:27:10;19.30;;;6.93;;
64075;SDS011;50327;51.328;12.324;2023-08-24T04:29:35;18.17;;;6.75;;
64075;SDS011;50327;51.328;12.324;2023-08-24T04:32:00;10.50;;;6.00;;
64075;SDS011;50327;51.328;12.324;2023-08-24T04:34:26;14.85;;;6.22;;
64075;SDS011;50327;51.328;12.324;2023-08-24T04:36:51;19.08;;;6.35;;
64075;SDS011;50327;51.328;12.324;2023-08-24T04:39:16;13.00;;;6.57;;
64075;SDS011;50327;51.328;12.324;2023-08-24T04:41:43;19.38;;;7.03;;
64075;SDS011;50327;51.328;12.324;2023-08-24T04:44:08;13.13;;;6.93;;
64075;SDS011;50327;51.328;12.324;2023-08-24T04:46:34;15.85;;;7.25;;
64075;SDS011;50327;51.328;12.324;2023-08-24T04:48:59;14.77;;;6.55;;
64075;SDS011;50327;51.328;12.324;2023-08-24T04:51:24;18.67;;;6.47;;
64075;SDS011;50327;51.328;12.324;2023-08-24T04:53:52;8.25;;;5.63;;
64075;SDS011;50327;51.328;12.324;2023-08-24T04:56:18;24.35;;;6.82;;
64075;SDS011;50327;51.328;12.324;2023-08-24T04:58:53;13.68;;;6.43;;
64075;SDS011;50327;51.328;12.324;2023-08-24T05:01:19;13.02;;;6.43;;
64075;SDS011;50327;51.328;12.324;2023-08-24T05:03:44;15.73;;;7.35;;
64075;SDS011;50327;51.328;12.324;2023-08-24T05:06:10;9.57;;;6.18;;
64075;SDS011;50327;51.328;12.324;2023-08-24T05:08:35;18.10;;;6.90;;
64075;SDS011;50327;51.328;12.324;2023-08-24T05:11:00;16.13;;;6.97;;
64075;SDS011;50327;51.328;12.324;2023-08-24T05:13:25;13.48;;;6.40;;
64075;SDS011;50327;51.328;12.324;2023-08-24T05:15:50;21.67;;;6.70;;
64075;SDS011;50327;51.328;12.324;2023-08-24T05:18:16;21.30;;;8.27;;
64075;SDS011;50327;51.328;12.324;2023-08-24T05:20:41;12.73;;;5.95;;
64075;SDS011;50327;51.328;12.324;2023-08-24T05:23:06;13.05;;;6.80;;
64075;SDS011;50327;51.328;12.324;2023-08-24T05:25:32;14.27;;;6.43;;
64075;SDS011;50327;51.328;12.324;2023-08-24T05:27:59;19.77;;;6.97;;
64075;SDS011;50327;51.328;12.324;2023-08-24T05:30:24;13.95;;;8.70;;
64075;SDS011;50327;51.328;12.324;2023-08-24T05:32:50;12.18;;;6.38;;
64075;SDS011;50327;51.328;12.324;2023-08-24T05:35:15;16.40;;;6.75;;
64075;SDS011;50327;51.328;12.324;2023-08-24T05:37:40;13.88;;;6.28;;
64075;SDS011;50327;51.328;12.324;2023-08-24T05:40:05;16.80;;;7.60;;
64075;SDS011;50327;51.328;12.324;2023-08-24T05:42:31;14.25;;;7.45;;
64075;SDS011;50327;51.328;12.324;2023-08-24T05:44:56;11.38;;;6.60;;
64075;SDS011;50327;51.328;12.324;2023-08-24T05:47:22;16.30;;;7.28;;
64075;SDS011;50327;51.328;12.324;2023-08-24T05:49:47;17.02;;;6.68;;
64075;SDS011;50327;51.328;12.324;2023-08-24T05:52:12;21.40;;;7.28;;
64075;SDS011;50327;51.328;12.324;2023-08-24T05:54:38;18.45;;;6.82;;
64075;SDS011;50327;51.328;12.324;2023-08-24T05:57:03;17.48;;;6.65;;
64075;SDS011;50327;51.328;12.324;2023-08-24T05:59:29;24.05;;;8.90;;
64075;SDS011;50327;51.328;12.324;2023-08-24T06:01:54;15.65;;;7.18;;
64075;SDS011;50327;51.328;12.324;2023-08-24T06:04:20;12.25;;;6.80;;
64075;SDS011;50327;51.328;12.324;2023-08-24T06:06:45;11.50;;;6.35;;
64075;SDS011;50327;51.328;12.324;2023-08-24T06:09:11;20.42;;;6.55;;
64075;SDS011;50327;51.328;12.324;2023-08-24T06:11:36;14.48;;;6.78;;
64075;SDS011;50327;51.328;12.324;2023-08-24T06:14:01;14.80;;;6.93;;
64075;SDS011;50327;51.328;12.324;2023-08-24T06:16:27;14.80;;;6.53;;
64075;SDS011;50327;51.328;12.324;2023-08-24T06:18:52;25.65;;;8.27;;
64075;SDS011;50327;51.328;12.324;2023-08-24T06:21:18;14.07;;;7.32;;
64075;SDS011;50327;51.328;12.324;2023-08-24T06:23:43;13.40;;;6.32;;
64075;SDS011;50327;51.328;12.324;2023-08-24T06:26:09;13.32;;;5.57;;
64075;SDS011;50327;51.328;12.324;2023-08-24T06:28:35;13.65;;;6.03;;
64075;SDS011;50327;51.328;12.324;2023-08-24T06:31:00;17.77;;;7.78;;
64075;SDS011;50327;51.328;12.324;2023-08-24T06:33:28;10.23;;;6.60;;
64075;SDS011;50327;51.328;12.324;2023-08-24T06:35:57;11.38;;;6.05;;
64075;SDS011;50327;51.328;12.324;2023-08-24T06:38:22;14.90;;;6.53;;
64075;SDS011;50327;51.328;12.324;2023-08-24T06:40:48;13.30;;;6.22;;
64075;SDS011;50327;51.328;12.324;2023-08-24T06:43:13;15.55;;;5.75;;
64075;SDS011;50327;51.328;12.324;2023-08-24T06:45:39;18.42;;;6.78;;
64075;SDS011;50327;51.328;12.324;2023-08-24T06:48:04;14.13;;;6.28;;
64075;SDS011;50327;51.328;12.324;2023-08-24T06:50:32;13.90;;;6.20;;
64075;SDS011;50327;51.328;12.324;2023-08-24T06:52:57;18.08;;;5.75;;
64075;SDS011;50327;51.328;12.324;2023-08-24T06:55:22;13.02;;;5.72;;
64075;SDS011;50327;51.328;12.324;2023-08-24T06:57:48;9.23;;;5.10;;
64075;SDS011;50327;51.328;12.324;2023-08-24T07:00:14;23.02;;;6.32;;
64075;SDS011;50327;51.328;12.324;2023-08-24T07:02:40;12.05;;;5.85;;
64075;SDS011;50327;51.328;12.324;2023-08-24T07:05:05;11.68;;;5.10;;
64075;SDS011;50327;51.328;12.324;2023-08-24T07:07:33;8.43;;;5.43;;
64075;SDS011;50327;51.328;12.324;2023-08-24T07:09:58;10.88;;;5.53;;
64075;SDS011;50327;51.328;12.324;2023-08-24T07:12:23;16.30;;;5.93;;
64075;SDS011;50327;51.328;12.324;2023-08-24T07:14:48;12.70;;;5.40;;
64075;SDS011;50327;51.328;12.324;2023-08-24T07:17:14;12.05;;;5.72;;
64075;SDS011;50327;51.328;12.324;2023-08-24T07:19:39;11.73;;;5.30;;
64075;SDS011;50327;51.328;12.324;2023-08-24T07:22:04;13.40;;;5.00;;
64075;SDS011;50327;51.328;12.324;2023-08-24T07:24:29;9.98;;;5.32;;
64075;SDS011;50327;51.328;12.324;2023-08-24T07:26:55;10.93;;;4.43;;
64075;SDS011;50327;51.328;12.324;2023-08-24T07:29:20;18.13;;;4.80;;
64075;SDS011;50327;51.328;12.324;2023-08-24T07:31:46;14.20;;;4.97;;
64075;SDS011;50327;51.328;12.324;2023-08-24T07:34:11;11.60;;;5.00;;
64075;SDS011;50327;51.328;12.324;2023-08-24T07:36:36;11.77;;;4.88;;
64075;SDS011;50327;51.328;12.324;2023-08-24T07:39:01;14.97;;;5.30;;
64075;SDS011;50327;51.328;12.324;2023-08-24T07:41:27;11.23;;;5.03;;
64075;SDS011;50327;51.328;12.324;2023-08-24T07:43:52;15.75;;;4.82;;
64075;SDS011;50327;51.328;12.324;2023-08-24T07:46:17;14.75;;;5.50;;
64075;SDS011;50327;51.328;12.324;2023-08-24T07:48:42;9.52;;;4.13;;
64075;SDS011;50327;51.328;12.324;2023-08-24T07:51:08;19.17;;;4.30;;
64075;SDS011;50327;51.328;12.324;2023-08-24T07:53:33;16.40;;;4.22;;
64075;SDS011;50327;51.328;12.324;2023-08-24T07:55:59;8.65;;;3.85;;
64075;SDS011;50327;51.328;12.324;2023-08-24T07:58:25;11.50;;;3.88;;
64075;SDS011;50327;51.328;12.324;2023-08-24T08:00:50;10.77;;;4.00;;
64075;SDS011;50327;51.328;12.324;2023-08-24T08:03:19;17.50;;;3.60;;
64075;SDS011;50327;51.328;12.324;2023-08-24T08:05:45;8.45;;;4.05;;
64075;SDS011;50327;51.328;12.324;2023-08-24T08:08:10;16.48;;;4.28;;
64075;SDS011;50327;51.328;12.324;2023-08-24T08:10:35;15.93;;;3.53;;
64075;SDS011;50327;51.328;12.324;2023-08-24T08:13:01;8.43;;;2.70;;
64075;SDS011;50327;51.328;12.324;2023-08-24T08:15:26;14.63;;;3.83;;
64075;SDS011;50327;51.328;12.324;2023-08-24T08:17:51;13.40;;;3.47;;
64075;SDS011;50327;51.328;12.324;2023-08-24T08:20:17;15.60;;;3.85;;
64075;SDS011;50327;51.328;12.324;2023-08-24T08:22:42;12.35;;;4.00;;
64075;SDS011;50327;51.328;12.324;2023-08-24T08:25:07;7.88;;;3.50;;
64075;SDS011;50327;51.328;12.324;2023-08-24T08:27:33;14.35;;;3.72;;
64075;SDS011;50327;51.328;12.324;2023-08-24T08:29:58;13.95;;;2.85;;
64075;SDS011;50327;51.328;12.324;2023-08-24T08:32:23;7.25;;;2.72;;
64075;SDS011;50327;51.328;12.324;2023-08-24T08:34:52;9.48;;;3.22;;
64075;SDS011;50327;51.328;12.324;2023-08-24T08:37:17;10.80;;;3.00;;
64075;SDS011;50327;51.328;12.324;2023-08-24T08:39:42;7.75;;;2.78;;
64075;SDS011;50327;51.328;12.324;2023-08-24T08:42:11;14.17;;;2.50;;
64075;SDS011;50327;51.328;12.324;2023-08-24T08:44:36;9.82;;;3.08;;
64075;SDS011;50327;51.328;12.324;2023-08-24T08:47:01;8.70;;;2.90;;
64075;SDS011;50327;51.328;12.324;2023-08-24T08:49:29;10.10;;;2.22;;
64075;SDS011;50327;51.328;12.324;2023-08-24T08:51:55;11.25;;;2.58;;
64075;SDS011;50327;51.328;12.324;2023-08-24T08:54:20;7.20;;;2.50;;
64075;SDS011;50327;51.328;12.324;2023-08-24T08:59:13;8.15;;;2.92;;
64075;SDS011;50327;51.328;12.324;2023-08-24T09:01:39;8.38;;;2.67;;
64075;SDS011;50327;51.328;12.324;2023-08-24T09:04:05;4.95;;;2.33;;
64075;SDS011;50327;51.328;12.324;2023-08-24T09:06:31;6.20;;;2.22;;
64075;SDS011;50327;51.328;12.324;2023-08-24T09:08:56;7.30;;;2.13;;
64075;SDS011;50327;51.328;12.324;2023-08-24T09:11:22;11.40;;;2.20;;
64075;SDS011;50327;51.328;12.324;2023-08-24T09:13:48;4.95;;;2.40;;
64075;SDS011;50327;51.328;12.324;2023-08-24T09:16:13;17.00;;;2.37;;
64075;SDS011;50327;51.328;12.324;2023-08-24T09:18:41;12.02;;;2.65;;
64075;SDS011;50327;51.328;12.324;2023-08-24T09:21:11;8.10;;;2.00;;
64075;SDS011;50327;51.328;12.324;2023-08-24T09:23:37;7.00;;;2.20;;
64075;SDS011;50327;51.328;12.324;2023-08-24T09:26:03;10.32;;;2.75;;
64075;SDS011;50327;51.328;12.324;2023-08-24T09:28:29;10.38;;;2.90;;
64075;SDS011;50327;51.328;12.324;2023-08-24T09:30:55;5.82;;;2.22;;
64075;SDS011;50327;51.328;12.324;2023-08-24T09:33:21;12.27;;;2.65;;
64075;SDS011;50327;51.328;12.324;2023-08-24T09:35:54;6.65;;;2.72;;
64075;SDS011;50327;51.328;12.324;2023-08-24T09:38:26;14.30;;;2.55;;
64075;SDS011;50327;51.328;12.324;2023-08-24T09:40:52;13.20;;;3.00;;
64075;SDS011;50327;51.328;12.324;2023-08-24T09:43:17;13.40;;;3.17;;
64075;SDS011;50327;51.328;12.324;2023-08-24T09:45:52;13.17;;;3.33;;
64075;SDS011;50327;51.328;12.324;2023-08-24T09:48:18;19.40;;;3.85;;
64075;SDS011;50327;51.328;12.324;2023-08-24T09:50:44;9.25;;;2.80;;
64075;SDS011;50327;51.328;12.324;2023-08-24T09:53:13;15.02;;;2.80;;
64075;SDS011;50327;51.328;12.324;2023-08-24T09:55:40;12.63;;;2.35;;
64075;SDS011;50327;51.328;12.324;2023-08-24T09:58:06;15.13;;;3.63;;
64075;SDS011;50327;51.328;12.324;2023-08-24T10:00:34;15.10;;;3.15;;
64075;SDS011;50327;51.328;12.324;2023-08-24T10:03:02;13.63;;;2.85;;
64075;SDS011;50327;51.328;12.324;2023-08-24T10:05:29;11.93;;;3.20;;
64075;SDS011;50327;51.328;12.324;2023-08-24T10:07:56;15.68;;;3.50;;
64075;SDS011;50327;51.328;12.324;2023-08-24T10:10:23;10.63;;;3.00;;
64075;SDS011;50327;51.328;12.324;2023-08-24T10:12:57;14.60;;;2.73;;
64075;SDS011;50327;51.328;12.324;2023-08-24T10:15:24;16.90;;;2.92;;
64075;SDS011;50327;51.328;12.324;2023-08-24T10:17:49;13.25;;;3.30;;
64075;SDS011;50327;51.328;12.324;2023-08-24T10:20:15;8.75;;;3.42;;
64075;SDS011;50327;51.328;12.324;2023-08-24T10:22:42;8.23;;;2.95;;
64075;SDS011;50327;51.328;12.324;2023-08-24T10:25:08;8.90;;;2.97;;
64075;SDS011;50327;51.328;12.324;2023-08-24T10:27:34;14.98;;;3.25;;
64075;SDS011;50327;51.328;12.324;2023-08-24T10:29:59;11.70;;;3.85;;
64075;SDS011;50327;51.328;12.324;2023-08-24T10:32:25;9.00;;;2.35;;
64075;SDS011;50327;51.328;12.324;2023-08-24T10:34:51;13.60;;;3.28;;
64075;SDS011;50327;51.328;12.324;2023-08-24T10:37:16;9.18;;;2.75;;
64075;SDS011;50327;51.328;12.324;2023-08-24T10:39:45;10.45;;;2.53;;
64075;SDS011;50327;51.328;12.324;2023-08-24T10:42:11;11.35;;;3.75;;
64075;SDS011;50327;51.328;12.324;2023-08-24T10:44:37;7.88;;;2.90;;
64075;SDS011;50327;51.328;12.324;2023-08-24T10:47:07;15.82;;;2.85;;
64075;SDS011;50327;51.328;12.324;2023-08-24T10:49:32;13.70;;;2.72;;
64075;SDS011;50327;51.328;12.324;2023-08-24T10:51:59;16.55;;;2.95;;
64075;SDS011;50327;51.328;12.324;2023-08-24T10:54:44;6.60;;;2.92;;
64075;SDS011;50327;51.328;12.324;2023-08-24T10:57:17;9.70;;;2.55;;
64075;SDS011;50327;51.328;12.324;2023-08-24T10:59:43;14.77;;;4.88;;
64075;SDS011;50327;51.328;12.324;2023-08-24T11:02:10;14.45;;;2.95;;
64075;SDS011;50327;51.328;12.324;2023-08-24T11:04:52;9.30;;;2.92;;
64075;SDS011;50327;51.328;12.324;2023-08-24T11:07:27;15.70;;;3.15;;
64075;SDS011;50327;51.328;12.324;2023-08-24T11:09:52;9.52;;;3.17;;
64075;SDS011;50327;51.328;12.324;2023-08-24T11:12:18;16.77;;;3.50;;
64075;SDS011;50327;51.328;12.324;2023-08-24T11:14:49;17.60;;;3.17;;
64075;SDS011;50327;51.328;12.324;2023-08-24T11:17:20;16.85;;;4.28;;
64075;SDS011;50327;51.328;12.324;2023-08-24T11:19:49;13.55;;;2.80;;
64075;SDS011;50327;51.328;12.324;2023-08-24T11:22:14;8.80;;;2.92;;
64075;SDS011;50327;51.328;12.324;2023-08-24T11:24:41;17.58;;;3.70;;
64075;SDS011;50327;51.328;12.324;2023-08-24T11:27:06;6.95;;;2.97;;
64075;SDS011;50327;51.328;12.324;2023-08-24T11:29:33;9.70;;;3.22;;
64075;SDS011;50327;51.328;12.324;2023-08-24T11:31:59;15.37;;;3.90;;
64075;SDS011;50327;51.328;12.324;2023-08-24T11:34:24;10.60;;;2.92;;
64075;SDS011;50327;51.328;12.324;2023-08-24T11:36:49;16.05;;;2.97;;
64075;SDS011;50327;51.328;12.324;2023-08-24T11:41:41;14.13;;;3.45;;
64075;SDS011;50327;51.328;12.324;2023-08-24T11:44:06;4.13;;;2.43;;
64075;SDS011;50327;51.328;12.324;2023-08-24T11:46:31;7.75;;;2.53;;
64075;SDS011;50327;51.328;12.324;2023-08-24T11:48:57;20.55;;;3.17;;
64075;SDS011;50327;51.328;12.324;2023-08-24T11:51:23;12.02;;;3.13;;
64075;SDS011;50327;51.328;12.324;2023-08-24T11:53:49;14.77;;;3.13;;
64075;SDS011;50327;51.328;12.324;2023-08-24T11:56:14;9.70;;;3.00;;
64075;SDS011;50327;51.328;12.324;2023-08-24T11:58:42;32.78;;;3.05;;
64075;SDS011;50327;51.328;12.324;2023-08-24T12:01:08;10.13;;;3.22;;
64075;SDS011;50327;51.328;12.324;2023-08-24T12:03:33;8.20;;;2.63;;
64075;SDS011;50327;51.328;12.324;2023-08-24T12:06:06;10.55;;;2.72;;
64075;SDS011;50327;51.328;12.324;2023-08-24T12:08:36;7.63;;;2.92;;
64075;SDS011;50327;51.328;12.324;2023-08-24T12:11:02;6.25;;;2.78;;
64075;SDS011;50327;51.328;12.324;2023-08-24T12:13:27;12.40;;;3.25;;
64075;SDS011;50327;51.328;12.324;2023-08-24T12:15:57;10.10;;;3.20;;
64075;SDS011;50327;51.328;12.324;2023-08-24T12:18:25;9.98;;;3.33;;
64075;SDS011;50327;51.328;12.324;2023-08-24T12:20:51;9.57;;;3.27;;
64075;SDS011;50327;51.328;12.324;2023-08-24T12:23:16;14.73;;;3.67;;
64075;SDS011;50327;51.328;12.324;2023-08-24T12:25:44;13.40;;;3.17;;
64075;SDS011;50327;51.328;12.324;2023-08-24T12:28:13;7.97;;;2.90;;
64075;SDS011;50327;51.328;12.324;2023-08-24T12:30:45;9.88;;;3.22;;
64075;SDS011;50327;51.328;12.324;2023-08-24T12:33:20;7.07;;;3.05;;
64075;SDS011;50327;51.328;12.324;2023-08-24T12:35:46;7.75;;;4.00;;
64075;SDS011;50327;51.328;12.324;2023-08-24T12:38:13;14.85;;;3.33;;
64075;SDS011;50327;51.328;12.324;2023-08-24T12:40:39;10.55;;;3.38;;
64075;SDS011;50327;51.328;12.324;2023-08-24T12:43:04;8.03;;;3.43;;
64075;SDS011;50327;51.328;12.324;2023-08-24T12:45:31;5.80;;;2.90;;
64075;SDS011;50327;51.328;12.324;2023-08-24T12:47:56;18.17;;;3.75;;
64075;SDS011;50327;51.328;12.324;2023-08-24T12:50:21;5.82;;;2.78;;
64075;SDS011;50327;51.328;12.324;2023-08-24T12:52:46;8.33;;;3.07;;
64075;SDS011;50327;51.328;12.324;2023-08-24T12:55:12;7.82;;;2.92;;
64075;SDS011;50327;51.328;12.324;2023-08-24T12:57:37;9.65;;;3.30;;
64075;SDS011;50327;51.328;12.324;2023-08-24T13:00:02;12.75;;;2.88;;
64075;SDS011;50327;51.328;12.324;2023-08-24T13:02:28;14.05;;;2.83;;
64075;SDS011;50327;51.328;12.324;2023-08-24T13:04:53;8.13;;;2.80;;
64075;SDS011;50327;51.328;12.324;2023-08-24T13:07:19;8.88;;;3.13;;
64075;SDS011;50327;51.328;12.324;2023-08-24T13:09:44;8.98;;;2.88;;
64075;SDS011;50327;51.328;12.324;2023-08-24T13:12:09;6.27;;;2.40;;
64075;SDS011;50327;51.328;12.324;2023-08-24T13:14:34;9.67;;;3.23;;
64075;SDS011;50327;51.328;12.324;2023-08-24T13:16:59;6.07;;;2.80;;
64075;SDS011;50327;51.328;12.324;2023-08-24T13:19:25;9.17;;;2.70;;
64075;SDS011;50327;51.328;12.324;2023-08-24T13:21:50;16.23;;;3.08;;
64075;SDS011;50327;51.328;12.324;2023-08-24T13:24:15;10.82;;;2.28;;
64075;SDS011;50327;51.328;12.324;2023-08-24T13:26:40;6.63;;;2.53;;
64075;SDS011;50327;51.328;12.324;2023-08-24T13:29:06;7.15;;;2.63;;
64075;SDS011;50327;51.328;12.324;2023-08-24T13:31:31;8.87;;;2.50;;
64075;SDS011;50327;51.328;12.324;2023-08-24T13:33:56;14.98;;;3.42;;
64075;SDS011;50327;51.328;12.324;2023-08-24T13:36:22;8.95;;;2.60;;
64075;SDS011;50327;51.328;12.324;2023-08-24T13:38:47;10.38;;;2.45;;
64075;SDS011;50327;51.328;12.324;2023-08-24T13:41:15;7.57;;;3.00;;
64075;SDS011;50327;51.328;12.324;2023-08-24T13:43:40;13.45;;;2.90;;
64075;SDS011;50327;51.328;12.324;2023-08-24T13:46:06;9.80;;;2.58;;
64075;SDS011;50327;51.328;12.324;2023-08-24T13:48:32;11.63;;;2.80;;
64075;SDS011;50327;51.328;12.324;2023-08-24T13:50:59;7.40;;;2.60;;
64075;SDS011;50327;51.328;12.324;2023-08-24T13:53:24;11.47;;;2.33;;
64075;SDS011;50327;51.328;12.324;2023-08-24T13:55:49;7.93;;;2.55;;
64075;SDS011;50327;51.328;12.324;2023-08-24T13:58:15;7.97;;;2.40;;
64075;SDS011;50327;51.328;12.324;2023-08-24T14:00:40;16.00;;;3.90;;
64075;SDS011;50327;51.328;12.324;2023-08-24T14:03:05;14.63;;;3.03;;
64075;SDS011;50327;51.328;12.324;2023-08-24T14:05:30;9.05;;;3.28;;
64075;SDS011;50327;51.328;12.324;2023-08-24T14:07:56;9.73;;;2.77;;
64075;SDS011;50327;51.328;12.324;2023-08-24T14:10:21;6.33;;;2.40;;
64075;SDS011;50327;51.328;12.324;2023-08-24T14:12:46;10.90;;;2.63;;
64075;SDS011;50327;51.328;12.324;2023-08-24T14:15:11;10.98;;;2.70;;
64075;SDS011;50327;51.328;12.324;2023-08-24T14:17:37;8.55;;;2.63;;
64075;SDS011;50327;51.328;12.324;2023-08-24T14:20:02;10.97;;;3.00;;
64075;SDS011;50327;51.328;12.324;2023-08-24T14:22:29;8.90;;;2.67;;
64075;SDS011;50327;51.328;12.324;2023-08-24T14:24:54;9.07;;;3.13;;
64075;SDS011;50327;51.328;12.324;2023-08-24T14:27:19;5.20;;;2.47;;
64075;SDS011;50327;51.328;12.324;2023-08-24T14:29:45;15.47;;;3.00;;
64075;SDS011;50327;51.328;12.324;2023-08-24T14:32:10;10.30;;;2.80;;
64075;SDS011;50327;51.328;12.324;2023-08-24T14:34:35;11.25;;;2.88;;